Time;durP1;ratioP1;P1;durP2;ratioP2;P2;SDS_P1;SDS_P2;PMS_P1;PMS_P2;Temp;Humidity;BMP_temperature;BMP_pressure;BME280_temperature;BME280_humidity;BME280_pressure;Samples;Min_cycle;Max_cycle;Signal;HPM_P1;HPM_P2
2023/04/06 00:00:48;;;;;;;92.70;38.30;;;;;;;-128.00;-1.00;-1.00;97947;296;1003525;-28
2023/04/06 00:03:13;;;;;;;134.50;51.40;;;;;;;-128.00;-1.00;-1.00;97791;296;1003148;-28
2023/04/06 00:05:39;;;;;;;97.10;41.00;;;;;;;-128.00;-1.00;-1.00;97800;296;1003410;-30
2023/04/06 00:08:05;;;;;;;94.80;39.90;;;;;;;-128.00;-1.00;-1.00;97805;296;1002890;-32
2023/04/06 00:10:30;;;;;;;82.60;42.70;;;;;;;-128.00;-1.00;-1.00;97821;296;1003387;-32
2023/04/06 00:12:57;;;;;;;79.70;28.00;;;;;;;-128.00;-1.00;-1.00;97838;296;1002954;-38
2023/04/06 00:15:23;;;;;;;122.90;54.20;;;;;;;-128.00;-1.00;-1.00;97857;296;1003166;-33
2023/04/06 00:17:48;;;;;;;85.10;31.70;;;;;;;-128.00;-1.00;-1.00;97827;296;1003160;-33
2023/04/06 00:20:15;;;;;;;208.80;51.60;;;;;;;-128.00;-1.00;-1.00;97784;285;1003224;-33
2023/04/06 00:22:41;;;;;;;83.50;28.40;;;;;;;-128.00;-1.00;-1.00;97914;296;1003845;-30
2023/04/06 00:25:07;;;;;;;620.60;161.60;;;;;;;-128.00;-1.00;-1.00;97912;296;1003736;-34
2023/04/06 00:27:32;;;;;;;539.30;135.80;;;;;;;-128.00;-1.00;-1.00;97711;291;1003481;-34
2023/04/06 00:29:58;;;;;;;330.30;87.30;;;;;;;-128.00;-1.00;-1.00;97850;296;1004232;-30
2023/04/06 00:32:24;;;;;;;416.80;94.50;;;;;;;-128.00;-1.00;-1.00;97869;296;1003223;-33
2023/04/06 00:34:49;;;;;;;99.10;27.60;;;;;;;-128.00;-1.00;-1.00;97824;285;1002919;-32
2023/04/06 00:37:15;;;;;;;545.80;176.90;;;;;;;-128.00;-1.00;-1.00;97888;296;1004101;-32
2023/04/06 00:39:41;;;;;;;374.60;118.70;;;;;;;-128.00;-1.00;-1.00;97778;296;1003181;-33
2023/04/06 00:42:11;;;;;;;99.20;49.10;;;;;;;-128.00;-1.00;-1.00;97863;296;1004267;-30
2023/04/06 00:44:37;;;;;;;120.00;53.80;;;;;;;-128.00;-1.00;-1.00;97834;296;1003426;-35
2023/04/06 00:47:03;;;;;;;83.50;38.90;;;;;;;-128.00;-1.00;-1.00;97790;296;1002963;-28
2023/04/06 00:49:28;;;;;;;53.00;21.00;;;;;;;-128.00;-1.00;-1.00;97852;285;1002986;-28
2023/04/06 00:51:54;;;;;;;68.50;31.30;;;;;;;-128.00;-1.00;-1.00;97770;297;1002741;-28
2023/04/06 00:54:20;;;;;;;65.80;29.20;;;;;;;-128.00;-1.00;-1.00;97861;285;1003942;-33
2023/04/06 00:56:45;;;;;;;58.10;27.00;;;;;;;-128.00;-1.00;-1.00;97781;297;1003866;-27
2023/04/06 00:59:12;;;;;;;45.60;17.20;;;;;;;-128.00;-1.00;-1.00;97812;297;1003965;-27
2023/04/06 01:01:37;;;;;;;48.50;25.10;;;;;;;-128.00;-1.00;-1.00;97741;297;1004623;-34
2023/04/06 01:04:03;;;;;;;58.40;25.50;;;;;;;-128.00;-1.00;-1.00;97854;297;1003542;-32
2023/04/06 01:06:29;;;;;;;39.50;17.50;;;;;;;-128.00;-1.00;-1.00;97772;297;1003306;-32
2023/04/06 01:08:54;;;;;;;39.80;19.50;;;;;;;-128.00;-1.00;-1.00;97741;297;1003214;-29
2023/04/06 01:11:20;;;;;;;70.60;30.30;;;;;;;-128.00;-1.00;-1.00;97856;297;1002722;-32
2023/04/06 01:13:46;;;;;;;64.90;36.50;;;;;;;-128.00;-1.00;-1.00;97857;297;1003415;-32
2023/04/06 01:16:11;;;;;;;52.00;23.40;;;;;;;-128.00;-1.00;-1.00;97727;297;1004085;-32
2023/04/06 01:18:37;;;;;;;82.20;37.50;;;;;;;-128.00;-1.00;-1.00;97761;297;1004145;-33
2023/04/06 01:21:03;;;;;;;67.60;29.10;;;;;;;-128.00;-1.00;-1.00;97623;297;1003977;-29
2023/04/06 01:23:28;;;;;;;66.80;25.10;;;;;;;-128.00;-1.00;-1.00;97825;297;1003113;-32
2023/04/06 01:25:54;;;;;;;62.90;25.80;;;;;;;-128.00;-1.00;-1.00;97839;297;1004582;-28
2023/04/06 01:28:20;;;;;;;58.80;21.10;;;;;;;-128.00;-1.00;-1.00;97778;297;1004041;-35
2023/04/06 01:30:45;;;;;;;49.50;22.00;;;;;;;-128.00;-1.00;-1.00;97926;297;1003331;-28
2023/04/06 01:33:11;;;;;;;76.80;36.20;;;;;;;-128.00;-1.00;-1.00;97794;297;1003100;-32
2023/04/06 01:35:37;;;;;;;48.40;21.40;;;;;;;-128.00;-1.00;-1.00;97944;297;1003716;-29
2023/04/06 01:38:02;;;;;;;34.40;17.50;;;;;;;-128.00;-1.00;-1.00;97661;298;1003247;-28
2023/04/06 01:40:28;;;;;;;62.50;22.20;;;;;;;-128.00;-1.00;-1.00;97852;285;1003066;-28
2023/04/06 01:42:53;;;;;;;43.40;18.50;;;;;;;-128.00;-1.00;-1.00;97737;297;1003183;-33
2023/04/06 01:45:19;;;;;;;40.60;18.70;;;;;;;-128.00;-1.00;-1.00;97833;297;1004916;-28
2023/04/06 01:47:45;;;;;;;44.30;14.30;;;;;;;-128.00;-1.00;-1.00;95242;297;4612530;-32
2023/04/06 01:50:11;;;;;;;35.10;11.30;;;;;;;-128.00;-1.00;-1.00;32762;297;7505961;-33
2023/04/06 01:52:37;;;;;;;20.10;9.60;;;;;;;-128.00;-1.00;-1.00;30844;297;7504333;-34
2023/04/06 01:55:03;;;;;;;38.30;17.30;;;;;;;-128.00;-1.00;-1.00;78481;297;7504320;-36
2023/04/06 01:57:29;;;;;;;52.70;18.20;;;;;;;-128.00;-1.00;-1.00;25221;297;7504053;-29
2023/04/06 01:59:55;;;;;;;70.00;21.50;;;;;;;-128.00;-1.00;-1.00;18465;297;7504664;-34
2023/04/06 02:02:21;;;;;;;59.80;21.40;;;;;;;-128.00;-1.00;-1.00;18879;297;7505807;-34
2023/04/06 02:04:48;;;;;;;63.00;21.60;;;;;;;-128.00;-1.00;-1.00;18878;285;7504956;-29
2023/04/06 02:07:14;;;;;;;59.90;23.60;;;;;;;-128.00;-1.00;-1.00;18848;297;7505391;-34
2023/04/06 02:09:40;;;;;;;58.70;24.90;;;;;;;-128.00;-1.00;-1.00;18872;297;7504431;-30
2023/04/06 02:12:06;;;;;;;51.50;21.30;;;;;;;-128.00;-1.00;-1.00;18863;342;7504565;-35
2023/04/06 02:14:32;;;;;;;49.90;21.30;;;;;;;-128.00;-1.00;-1.00;18873;297;7504358;-32
2023/04/06 02:16:59;;;;;;;55.20;22.30;;;;;;;-128.00;-1.00;-1.00;18853;297;7505414;-30
2023/04/06 02:19:25;;;;;;;90.30;28.70;;;;;;;-128.00;-1.00;-1.00;18856;297;7505410;-33
2023/04/06 02:21:51;;;;;;;63.70;27.30;;;;;;;-128.00;-1.00;-1.00;18869;297;7504653;-30
2023/04/06 02:24:17;;;;;;;48.20;20.00;;;;;;;-128.00;-1.00;-1.00;18854;298;7504487;-32
2023/04/06 02:26:43;;;;;;;42.70;19.80;;;;;;;-128.00;-1.00;-1.00;18877;297;7505370;-30
2023/04/06 02:29:10;;;;;;;53.30;20.50;;;;;;;-128.00;-1.00;-1.00;18844;298;7504722;-34
2023/04/06 02:31:36;;;;;;;65.60;27.70;;;;;;;-128.00;-1.00;-1.00;18483;297;7505577;-30
2023/04/06 02:34:02;;;;;;;83.80;36.70;;;;;;;-128.00;-1.00;-1.00;18858;297;7504939;-34
2023/04/06 02:36:28;;;;;;;63.10;21.10;;;;;;;-128.00;-1.00;-1.00;18870;297;7504566;-31
2023/04/06 02:38:55;;;;;;;53.50;24.20;;;;;;;-128.00;-1.00;-1.00;18875;298;7504047;-30
2023/04/06 02:41:21;;;;;;;48.50;20.00;;;;;;;-128.00;-1.00;-1.00;18864;297;7505537;-32
2023/04/06 02:43:47;;;;;;;89.50;25.20;;;;;;;-128.00;-1.00;-1.00;18861;297;7504763;-34
2023/04/06 02:46:13;;;;;;;54.50;22.80;;;;;;;-128.00;-1.00;-1.00;18872;297;7505274;-34
2023/04/06 02:48:40;;;;;;;67.20;21.50;;;;;;;-128.00;-1.00;-1.00;18856;308;7504835;-34
2023/04/06 02:51:06;;;;;;;64.00;22.50;;;;;;;-128.00;-1.00;-1.00;18857;297;7505025;-31
2023/04/06 02:53:33;;;;;;;86.90;29.80;;;;;;;-128.00;-1.00;-1.00;18862;339;7504395;-32
2023/04/06 02:55:59;;;;;;;96.10;38.80;;;;;;;-128.00;-1.00;-1.00;18827;299;7504324;-31
2023/04/06 02:58:25;;;;;;;70.80;22.70;;;;;;;-128.00;-1.00;-1.00;18441;298;7505749;-30
2023/04/06 03:00:52;;;;;;;48.50;20.30;;;;;;;-128.00;-1.00;-1.00;18461;297;7506241;-29
2023/04/06 03:03:18;;;;;;;58.90;21.80;;;;;;;-128.00;-1.00;-1.00;18476;297;7504872;-30
2023/04/06 03:05:43;;;;;;;40.70;19.10;;;;;;;-128.00;-1.00;-1.00;18471;320;7504794;-32
2023/04/06 03:08:09;;;;;;;52.10;21.40;;;;;;;-128.00;-1.00;-1.00;18441;297;7505766;-33
2023/04/06 03:10:34;;;;;;;35.40;18.40;;;;;;;-128.00;-1.00;-1.00;18450;285;7504706;-29
2023/04/06 03:13:01;;;;;;;59.20;22.60;;;;;;;-128.00;-1.00;-1.00;18850;341;7503984;-29
2023/04/06 03:15:27;;;;;;;52.00;22.00;;;;;;;-128.00;-1.00;-1.00;18867;297;7505319;-31
2023/04/06 03:17:53;;;;;;;60.10;25.40;;;;;;;-128.00;-1.00;-1.00;18860;301;7505034;-34
2023/04/06 03:20:19;;;;;;;47.80;21.90;;;;;;;-128.00;-1.00;-1.00;18856;298;7504510;-36
2023/04/06 03:22:45;;;;;;;46.80;20.20;;;;;;;-128.00;-1.00;-1.00;18868;297;7504103;-31
2023/04/06 03:25:12;;;;;;;53.40;22.60;;;;;;;-128.00;-1.00;-1.00;18862;297;7504595;-30
2023/04/06 03:27:39;;;;;;;61.10;26.60;;;;;;;-128.00;-1.00;-1.00;18856;341;7506025;-34
2023/04/06 03:30:05;;;;;;;55.60;27.10;;;;;;;-128.00;-1.00;-1.00;18456;297;7506153;-30
2023/04/06 03:32:31;;;;;;;52.90;23.30;;;;;;;-128.00;-1.00;-1.00;18487;297;7505021;-30
2023/04/06 03:34:57;;;;;;;35.00;13.90;;;;;;;-128.00;-1.00;-1.00;18463;308;7504350;-29
2023/04/06 03:37:23;;;;;;;43.30;18.80;;;;;;;-128.00;-1.00;-1.00;18862;297;7504288;-30
2023/04/06 03:39:49;;;;;;;70.60;26.00;;;;;;;-128.00;-1.00;-1.00;18877;321;7505624;-33
2023/04/06 03:42:15;;;;;;;57.20;24.20;;;;;;;-128.00;-1.00;-1.00;18883;297;7504480;-34
2023/04/06 03:44:41;;;;;;;54.20;24.10;;;;;;;-128.00;-1.00;-1.00;18854;297;7504523;-34
2023/04/06 03:47:07;;;;;;;55.70;25.30;;;;;;;-128.00;-1.00;-1.00;18887;297;7504917;-34
2023/04/06 03:49:34;;;;;;;79.20;27.10;;;;;;;-128.00;-1.00;-1.00;18880;349;7504427;-34
2023/04/06 03:52:01;;;;;;;60.00;25.00;;;;;;;-128.00;-1.00;-1.00;18893;297;7504125;-31
2023/04/06 03:54:26;;;;;;;60.80;21.40;;;;;;;-128.00;-1.00;-1.00;18473;297;7504366;-29
2023/04/06 03:56:52;;;;;;;33.50;14.20;;;;;;;-128.00;-1.00;-1.00;18460;310;7506433;-30
2023/04/06 03:59:18;;;;;;;50.90;21.10;;;;;;;-128.00;-1.00;-1.00;18470;297;7505220;-36
2023/04/06 04:01:44;;;;;;;63.90;20.70;;;;;;;-128.00;-1.00;-1.00;18491;297;7504748;-35
2023/04/06 04:04:10;;;;;;;61.60;21.60;;;;;;;-128.00;-1.00;-1.00;18469;297;7506397;-33
2023/04/06 04:06:36;;;;;;;35.20;13.00;;;;;;;-128.00;-1.00;-1.00;18453;297;7504605;-29
2023/04/06 04:09:02;;;;;;;48.40;21.70;;;;;;;-128.00;-1.00;-1.00;18441;298;7505147;-30
2023/04/06 04:11:27;;;;;;;43.40;16.90;;;;;;;-128.00;-1.00;-1.00;18460;309;7504693;-30
2023/04/06 04:13:53;;;;;;;58.10;19.70;;;;;;;-128.00;-1.00;-1.00;18467;297;7506051;-29
2023/04/06 04:16:19;;;;;;;61.00;21.00;;;;;;;-128.00;-1.00;-1.00;18453;297;7505063;-33
2023/04/06 04:18:47;;;;;;;34.90;16.60;;;;;;;-128.00;-1.00;-1.00;18486;290;7504717;-34
2023/04/06 04:21:12;;;;;;;58.40;23.30;;;;;;;-128.00;-1.00;-1.00;18456;305;7506068;-34
2023/04/06 04:23:38;;;;;;;47.40;24.20;;;;;;;-128.00;-1.00;-1.00;18428;308;7505413;-34
2023/04/06 04:26:04;;;;;;;38.00;16.10;;;;;;;-128.00;-1.00;-1.00;18863;297;7504666;-33
2023/04/06 04:28:30;;;;;;;34.30;12.90;;;;;;;-128.00;-1.00;-1.00;18867;297;7505579;-30
2023/04/06 04:30:57;;;;;;;36.70;15.50;;;;;;;-128.00;-1.00;-1.00;18848;338;7504258;-31
2023/04/06 04:33:23;;;;;;;40.20;17.10;;;;;;;-128.00;-1.00;-1.00;18879;297;7504912;-32
2023/04/06 04:35:49;;;;;;;37.70;15.30;;;;;;;-128.00;-1.00;-1.00;18866;299;7504564;-33
2023/04/06 05:16:35;;;;;;;165.40;50.80;;;;;;;-103.31;19.20;19977.56;98292;294;1544461;-30
2023/04/06 05:19:05;;;;;;;118.90;35.40;;;;;;;-128.00;-1.00;-1.00;69704;296;7503663;-30
2023/04/06 05:21:31;;;;;;;161.10;45.80;;;;;;;-128.00;-1.00;-1.00;18899;287;7504808;-28
2023/04/06 05:23:58;;;;;;;126.30;38.60;;;;;;;-128.00;-1.00;-1.00;18874;294;7504533;-30
2023/04/06 05:26:24;;;;;;;123.80;32.70;;;;;;;-128.00;-1.00;-1.00;18896;294;7504607;-30
2023/04/06 05:28:50;;;;;;;96.10;30.10;;;;;;;-128.00;-1.00;-1.00;18886;294;7504914;-30
2023/04/06 05:31:17;;;;;;;86.60;32.50;;;;;;;-128.00;-1.00;-1.00;18889;295;7504354;-34
2023/04/06 05:33:43;;;;;;;94.20;34.40;;;;;;;-128.00;-1.00;-1.00;18915;313;7504352;-30
2023/04/06 05:36:09;;;;;;;122.00;38.70;;;;;;;-128.00;-1.00;-1.00;18932;294;7504468;-34
2023/04/06 05:38:36;;;;;;;93.40;30.40;;;;;;;-128.00;-1.00;-1.00;18478;294;7504753;-34
2023/04/06 05:41:02;;;;;;;79.90;30.60;;;;;;;-128.00;-1.00;-1.00;18900;295;7504253;-30
2023/04/06 05:43:28;;;;;;;70.30;24.30;;;;;;;-128.00;-1.00;-1.00;18906;294;7505127;-30
2023/04/06 05:45:55;;;;;;;65.10;23.40;;;;;;;-128.00;-1.00;-1.00;18875;294;7505127;-33
2023/04/06 05:48:21;;;;;;;46.80;21.80;;;;;;;-128.00;-1.00;-1.00;18906;294;7504514;-34
2023/04/06 05:50:50;;;;;;;42.00;19.30;;;;;;;-128.00;-1.00;-1.00;18867;295;7505158;-34
2023/04/06 05:53:16;;;;;;;42.80;20.00;;;;;;;-128.00;-1.00;-1.00;18512;293;7506374;-29
2023/04/06 05:55:42;;;;;;;46.80;19.80;;;;;;;-128.00;-1.00;-1.00;18519;294;7504550;-34
2023/04/06 05:58:07;;;;;;;47.30;18.80;;;;;;;-128.00;-1.00;-1.00;18489;294;7504318;-33
2023/04/06 06:00:34;;;;;;;47.70;21.70;;;;;;;-128.00;-1.00;-1.00;18874;293;7504407;-33
2023/04/06 06:03:00;;;;;;;58.30;21.90;;;;;;;-128.00;-1.00;-1.00;18521;294;7504798;-30
2023/04/06 06:05:25;;;;;;;68.20;27.60;;;;;;;-128.00;-1.00;-1.00;18479;338;7504618;-34
2023/04/06 06:07:51;;;;;;;52.00;22.30;;;;;;;-128.00;-1.00;-1.00;18500;294;7504957;-34
2023/04/06 06:10:17;;;;;;;47.90;22.10;;;;;;;-128.00;-1.00;-1.00;18507;317;7504893;-30
2023/04/06 06:12:43;;;;;;;44.40;19.90;;;;;;;-128.00;-1.00;-1.00;18881;295;7505078;-31
2023/04/06 06:15:10;;;;;;;48.40;20.30;;;;;;;-128.00;-1.00;-1.00;18884;294;7505113;-30
2023/04/06 06:17:36;;;;;;;51.40;21.10;;;;;;;-128.00;-1.00;-1.00;18487;338;7506910;-34
2023/04/06 06:20:02;;;;;;;45.10;18.70;;;;;;;-128.00;-1.00;-1.00;18499;294;7504431;-35
2023/04/06 06:22:27;;;;;;;31.60;14.60;;;;;;;-128.00;-1.00;-1.00;18486;294;7504881;-29
2023/04/06 06:24:53;;;;;;;43.50;19.00;;;;;;;-128.00;-1.00;-1.00;18472;294;7506107;-30
2023/04/06 06:27:19;;;;;;;72.80;22.60;;;;;;;-128.00;-1.00;-1.00;18509;294;7505985;-32
2023/04/06 06:29:45;;;;;;;44.80;21.70;;;;;;;-128.00;-1.00;-1.00;18485;302;7507053;-30
2023/04/06 06:32:10;;;;;;;49.90;15.80;;;;;;;-128.00;-1.00;-1.00;18504;294;7504774;-29
2023/04/06 06:34:36;;;;;;;41.40;18.10;;;;;;;-128.00;-1.00;-1.00;18477;294;7505308;-34
2023/04/06 06:37:02;;;;;;;38.70;19.40;;;;;;;-128.00;-1.00;-1.00;18475;287;7504551;-34
2023/04/06 06:39:28;;;;;;;51.20;21.00;;;;;;;-128.00;-1.00;-1.00;18526;294;7505027;-29
2023/04/06 06:41:55;;;;;;;52.60;20.50;;;;;;;-128.00;-1.00;-1.00;18512;338;7504476;-34
2023/04/06 06:44:21;;;;;;;52.80;19.90;;;;;;;-128.00;-1.00;-1.00;18496;346;7504830;-35
2023/04/06 06:46:47;;;;;;;47.20;18.90;;;;;;;-128.00;-1.00;-1.00;18502;293;7504570;-31
2023/04/06 06:49:14;;;;;;;39.30;14.40;;;;;;;-128.00;-1.00;-1.00;18482;318;7504539;-30
2023/04/06 06:51:40;;;;;;;37.00;17.90;;;;;;;-128.00;-1.00;-1.00;18517;294;7504418;-34
2023/04/06 06:54:06;;;;;;;38.10;18.70;;;;;;;-128.00;-1.00;-1.00;18509;294;7506061;-30
2023/04/06 06:56:31;;;;;;;37.90;19.40;;;;;;;-128.00;-1.00;-1.00;18498;294;7504134;-31
2023/04/06 06:58:57;;;;;;;50.30;18.30;;;;;;;-128.00;-1.00;-1.00;18475;294;7504232;-30
2023/04/06 07:01:22;;;;;;;34.90;16.40;;;;;;;-128.00;-1.00;-1.00;18469;294;7504495;-35
2023/04/06 07:03:48;;;;;;;31.90;16.50;;;;;;;-128.00;-1.00;-1.00;18887;286;7504705;-34
2023/04/06 07:06:15;;;;;;;37.70;15.50;;;;;;;-128.00;-1.00;-1.00;18896;346;7505640;-30
2023/04/06 07:08:41;;;;;;;30.20;14.00;;;;;;;-128.00;-1.00;-1.00;18898;294;7504777;-29
2023/04/06 07:11:07;;;;;;;22.10;12.20;;;;;;;-128.00;-1.00;-1.00;18909;294;7504288;-34
2023/04/06 07:13:33;;;;;;;25.40;14.80;;;;;;;-128.00;-1.00;-1.00;18845;294;7505319;-31
2023/04/06 07:15:59;;;;;;;31.20;15.00;;;;;;;-128.00;-1.00;-1.00;18892;286;7505520;-34
2023/04/06 07:18:26;;;;;;;34.10;15.20;;;;;;;-128.00;-1.00;-1.00;18893;294;7504722;-30
2023/04/06 07:20:52;;;;;;;30.10;13.80;;;;;;;-128.00;-1.00;-1.00;18878;346;7506037;-32
2023/04/06 07:23:18;;;;;;;29.50;13.50;;;;;;;-128.00;-1.00;-1.00;18891;335;7504592;-34
2023/04/06 07:25:45;;;;;;;23.30;12.80;;;;;;;-128.00;-1.00;-1.00;18900;346;7504144;-35
2023/04/06 07:28:11;;;;;;;22.80;11.90;;;;;;;-128.00;-1.00;-1.00;18506;335;7505020;-34
2023/04/06 07:30:37;;;;;;;19.60;12.40;;;;;;;-128.00;-1.00;-1.00;18476;294;7506248;-30
2023/04/06 07:33:03;;;;;;;17.00;11.20;;;;;;;-128.00;-1.00;-1.00;18479;295;7505760;-31
2023/04/06 07:35:29;;;;;;;21.60;11.70;;;;;;;-128.00;-1.00;-1.00;18484;287;7505272;-31
2023/04/06 07:37:55;;;;;;;18.30;10.70;;;;;;;-128.00;-1.00;-1.00;18495;294;7506305;-30
2023/04/06 07:40:21;;;;;;;21.70;11.40;;;;;;;-128.00;-1.00;-1.00;18523;294;7504812;-30
2023/04/06 07:42:47;;;;;;;10.30;7.60;;;;;;;-128.00;-1.00;-1.00;18499;334;7504831;-34
2023/04/06 07:45:13;;;;;;;19.30;10.50;;;;;;;-128.00;-1.00;-1.00;18473;294;7504598;-30
2023/04/06 07:47:38;;;;;;;21.50;10.00;;;;;;;-128.00;-1.00;-1.00;18465;295;7505431;-31
2023/04/06 07:50:05;;;;;;;27.20;13.90;;;;;;;-128.00;-1.00;-1.00;18517;294;7504814;-31
2023/04/06 07:52:31;;;;;;;35.30;14.70;;;;;;;-128.00;-1.00;-1.00;18503;294;7505119;-31
2023/04/06 07:54:58;;;;;;;12.80;7.90;;;;;;;-128.00;-1.00;-1.00;18465;334;7506274;-32
2023/04/06 07:57:23;;;;;;;10.20;7.40;;;;;;;-128.00;-1.00;-1.00;18484;294;7504737;-35
2023/04/06 07:59:50;;;;;;;15.50;8.60;;;;;;;-128.00;-1.00;-1.00;18873;296;7504514;-31
2023/04/06 08:02:16;;;;;;;16.90;9.70;;;;;;;-128.00;-1.00;-1.00;18867;287;7504882;-35
2023/04/06 08:04:43;;;;;;;34.20;15.60;;;;;;;-128.00;-1.00;-1.00;18886;301;7505124;-31
2023/04/06 08:07:09;;;;;;;20.40;12.60;;;;;;;-128.00;-1.00;-1.00;18492;302;7506535;-32
2023/04/06 08:09:35;;;;;;;15.10;8.70;;;;;;;-128.00;-1.00;-1.00;18491;294;7506208;-33
2023/04/06 08:12:01;;;;;;;20.70;9.40;;;;;;;-128.00;-1.00;-1.00;18524;294;7504527;-31
2023/04/06 08:14:26;;;;;;;17.00;9.90;;;;;;;-128.00;-1.00;-1.00;18500;294;7505971;-35
2023/04/06 08:16:52;;;;;;;18.70;12.00;;;;;;;-128.00;-1.00;-1.00;18503;294;7505971;-31
2023/04/06 08:19:18;;;;;;;22.80;11.10;;;;;;;-128.00;-1.00;-1.00;18497;335;7504598;-35
2023/04/06 08:21:46;;;;;;;44.40;10.20;;;;;;;-128.00;-1.00;-1.00;18470;318;7504704;-31
2023/04/06 08:24:12;;;;;;;17.00;9.20;;;;;;;-128.00;-1.00;-1.00;18473;294;7504487;-30
2023/04/06 08:26:38;;;;;;;20.30;9.50;;;;;;;-128.00;-1.00;-1.00;18463;294;7506066;-35
2023/04/06 08:29:05;;;;;;;15.00;9.40;;;;;;;-128.00;-1.00;-1.00;18889;294;7505400;-31
2023/04/06 08:31:31;;;;;;;7.40;4.70;;;;;;;-128.00;-1.00;-1.00;18472;294;7505891;-31
2023/04/06 08:33:57;;;;;;;13.10;7.40;;;;;;;-128.00;-1.00;-1.00;18897;286;7504628;-31
2023/04/06 08:36:23;;;;;;;13.40;8.70;;;;;;;-128.00;-1.00;-1.00;18870;294;7504287;-31
2023/04/06 08:38:50;;;;;;;15.80;8.80;;;;;;;-128.00;-1.00;-1.00;18901;311;7505406;-30
2023/04/06 08:41:19;;;;;;;15.20;8.20;;;;;;;-128.00;-1.00;-1.00;18909;294;7504457;-34
2023/04/06 08:43:58;;;;;;;17.60;7.60;;;;;;;-128.00;-1.00;-1.00;18513;283;7504915;-30
2023/04/06 08:46:29;;;;;;;11.20;5.60;;;;;;;-128.00;-1.00;-1.00;18509;294;7506372;-30
2023/04/06 08:48:56;;;;;;;8.70;5.40;;;;;;;-128.00;-1.00;-1.00;18461;334;7504416;-30
2023/04/06 08:51:25;;;;;;;16.60;7.80;;;;;;;-128.00;-1.00;-1.00;18471;287;7504342;-34
2023/04/06 08:53:54;;;;;;;14.90;8.30;;;;;;;-128.00;-1.00;-1.00;18466;295;7504767;-34
2023/04/06 08:56:22;;;;;;;14.10;8.70;;;;;;;-128.00;-1.00;-1.00;18461;338;7505438;-34
2023/04/06 08:58:49;;;;;;;14.30;8.70;;;;;;;-128.00;-1.00;-1.00;18481;294;7504917;-34
2023/04/06 09:01:17;;;;;;;23.00;12.10;;;;;;;-128.00;-1.00;-1.00;18477;294;7505394;-34
2023/04/06 09:03:42;;;;;;;21.40;12.60;;;;;;;-128.00;-1.00;-1.00;18464;318;7505012;-34
2023/04/06 09:06:09;;;;;;;12.60;8.10;;;;;;;-128.00;-1.00;-1.00;18482;330;7505119;-34
2023/04/06 09:08:35;;;;;;;10.70;6.90;;;;;;;-128.00;-1.00;-1.00;18470;294;7504500;-29
2023/04/06 09:11:05;;;;;;;8.10;4.40;;;;;;;-128.00;-1.00;-1.00;18480;294;7504785;-34
2023/04/06 09:13:31;;;;;;;16.10;10.00;;;;;;;-128.00;-1.00;-1.00;18493;302;7506811;-31
2023/04/06 09:16:01;;;;;;;9.00;6.30;;;;;;;-128.00;-1.00;-1.00;18456;306;7504512;-35
2023/04/06 09:18:29;;;;;;;16.10;6.60;;;;;;;-128.00;-1.00;-1.00;18484;346;7504576;-31
2023/04/06 09:21:03;;;;;;;7.10;5.30;;;;;;;-128.00;-1.00;-1.00;18498;295;7506065;-31
2023/04/06 09:23:28;;;;;;;8.70;5.10;;;;;;;-128.00;-1.00;-1.00;18461;294;7504523;-30
2023/04/06 09:26:08;;;;;;;9.00;5.20;;;;;;;-128.00;-1.00;-1.00;18854;294;7504620;-31
2023/04/06 09:28:53;;;;;;;7.90;5.90;;;;;;;-128.00;-1.00;-1.00;18494;294;7504615;-31
2023/04/06 09:31:26;;;;;;;8.60;5.30;;;;;;;-128.00;-1.00;-1.00;18479;294;7504257;-32
2023/04/06 09:33:52;;;;;;;10.00;4.90;;;;;;;-128.00;-1.00;-1.00;18461;285;7504500;-32
2023/04/06 09:36:18;;;;;;;6.40;4.70;;;;;;;-128.00;-1.00;-1.00;18482;294;7504521;-31
2023/04/06 09:39:02;;;;;;;7.70;4.70;;;;;;;-128.00;-1.00;-1.00;18508;318;7504607;-34
2023/04/06 09:41:30;;;;;;;9.90;4.70;;;;;;;-128.00;-1.00;-1.00;18494;346;7505119;-35
2023/04/06 09:44:08;;;;;;;6.10;3.90;;;;;;;-128.00;-1.00;-1.00;18484;294;7504792;-32
2023/04/06 09:46:35;;;;;;;6.20;4.80;;;;;;;-128.00;-1.00;-1.00;18480;294;7505773;-34
2023/04/06 09:49:04;;;;;;;7.00;5.10;;;;;;;-128.00;-1.00;-1.00;18474;294;7505728;-34
2023/04/06 09:51:31;;;;;;;6.20;5.40;;;;;;;-128.00;-1.00;-1.00;18482;334;7506132;-33
2023/04/06 09:54:02;;;;;;;10.80;6.30;;;;;;;-128.00;-1.00;-1.00;18477;294;7504441;-34
2023/04/06 09:56:30;;;;;;;10.70;5.90;;;;;;;-128.00;-1.00;-1.00;18515;294;7504963;-34
2023/04/06 09:59:00;;;;;;;11.60;6.70;;;;;;;-128.00;-1.00;-1.00;18473;294;7505348;-34
2023/04/06 10:01:26;;;;;;;15.90;5.80;;;;;;;-128.00;-1.00;-1.00;18484;338;7504179;-34
2023/04/06 10:03:56;;;;;;;5.90;4.70;;;;;;;-128.00;-1.00;-1.00;18458;334;7505253;-31
2023/04/06 10:06:23;;;;;;;8.40;6.00;;;;;;;-128.00;-1.00;-1.00;18458;294;7504126;-30
2023/04/06 10:08:50;;;;;;;20.20;6.50;;;;;;;-128.00;-1.00;-1.00;18486;338;7504126;-31
2023/04/06 10:11:15;;;;;;;9.50;4.30;;;;;;;-128.00;-1.00;-1.00;18484;294;7504685;-35
2023/04/06 10:13:42;;;;;;;8.40;5.00;;;;;;;-128.00;-1.00;-1.00;18471;294;7506009;-31
2023/04/06 10:16:08;;;;;;;8.70;4.50;;;;;;;-128.00;-1.00;-1.00;18493;294;7504618;-35
2023/04/06 10:18:34;;;;;;;19.50;6.00;;;;;;;-128.00;-1.00;-1.00;18477;346;7504701;-36
2023/04/06 10:21:12;;;;;;;7.90;5.30;;;;;;;-128.00;-1.00;-1.00;18482;319;7504378;-36
2023/04/06 10:23:45;;;;;;;6.10;5.20;;;;;;;-128.00;-1.00;-1.00;18481;295;7504520;-30
2023/04/06 10:26:16;;;;;;;8.80;5.30;;;;;;;-128.00;-1.00;-1.00;18483;338;7504405;-30
2023/04/06 10:28:43;;;;;;;14.60;5.90;;;;;;;-128.00;-1.00;-1.00;18496;294;7504440;-31
2023/04/06 10:31:08;;;;;;;4.80;3.30;;;;;;;-128.00;-1.00;-1.00;18470;294;7505995;-31
2023/04/06 10:33:34;;;;;;;6.00;4.10;;;;;;;-128.00;-1.00;-1.00;18485;294;7504578;-34
2023/04/06 10:36:13;;;;;;;8.80;4.90;;;;;;;-128.00;-1.00;-1.00;18472;294;7504604;-35
2023/04/06 10:38:39;;;;;;;8.90;5.50;;;;;;;-128.00;-1.00;-1.00;18472;294;7504771;-31
2023/04/06 10:41:05;;;;;;;6.10;4.20;;;;;;;-128.00;-1.00;-1.00;18475;295;7506033;-31
2023/04/06 10:43:35;;;;;;;3.40;3.10;;;;;;;-128.00;-1.00;-1.00;18492;294;7506062;-35
2023/04/06 10:46:01;;;;;;;5.30;3.50;;;;;;;-128.00;-1.00;-1.00;18514;282;7504724;-35
2023/04/06 10:48:34;;;;;;;8.80;5.90;;;;;;;-128.00;-1.00;-1.00;18519;294;7504507;-30
2023/04/06 10:50:59;;;;;;;7.40;6.10;;;;;;;-128.00;-1.00;-1.00;18479;294;7504743;-31
2023/04/06 10:53:26;;;;;;;5.40;4.60;;;;;;;-128.00;-1.00;-1.00;18520;294;7504403;-35
2023/04/06 10:55:54;;;;;;;5.50;4.30;;;;;;;-128.00;-1.00;-1.00;18473;294;7507310;-34
2023/04/06 10:58:19;;;;;;;5.90;4.00;;;;;;;-128.00;-1.00;-1.00;18453;295;7504819;-34
2023/04/06 11:00:47;;;;;;;9.60;5.60;;;;;;;-128.00;-1.00;-1.00;18900;294;7504281;-35
2023/04/06 11:03:12;;;;;;;9.70;5.80;;;;;;;-128.00;-1.00;-1.00;18474;294;7505007;-35
2023/04/06 11:45:46;;;;;;;6.40;4.50;;;;;;;-101.02;7.42;19954.71;98255;297;1545442;-35
2023/04/06 11:48:22;;;;;;;9.20;2.60;;;;;;;-128.00;-1.00;-1.00;97443;297;1002838;-35
2023/04/06 11:50:48;;;;;;;3.10;2.60;;;;;;;-128.00;-1.00;-1.00;97766;285;1005265;-30
2023/04/06 11:53:14;;;;;;;5.90;3.60;;;;;;;-128.00;-1.00;-1.00;97864;296;1004054;-34
2023/04/06 11:55:40;;;;;;;6.40;4.70;;;;;;;-128.00;-1.00;-1.00;97991;296;1003059;-33
2023/04/06 11:58:06;;;;;;;7.00;3.90;;;;;;;-128.00;-1.00;-1.00;97891;285;1003100;-35
2023/04/06 12:00:34;;;;;;;5.30;3.40;;;;;;;-128.00;-1.00;-1.00;97842;285;1005008;-29
2023/04/06 12:03:00;;;;;;;4.00;3.10;;;;;;;-128.00;-1.00;-1.00;97917;296;1003001;-33
2023/04/06 12:05:26;;;;;;;5.60;4.30;;;;;;;-128.00;-1.00;-1.00;97855;285;1003192;-33
2023/04/06 12:07:52;;;;;;;7.30;4.10;;;;;;;-128.00;-1.00;-1.00;98001;296;1003199;-36
2023/04/06 12:10:17;;;;;;;8.70;5.30;;;;;;;-128.00;-1.00;-1.00;97857;297;1003130;-33
2023/04/06 12:12:43;;;;;;;4.90;3.70;;;;;;;-128.00;-1.00;-1.00;98016;285;1003293;-29
2023/04/06 12:15:09;;;;;;;8.50;4.20;;;;;;;-128.00;-1.00;-1.00;97875;285;1004308;-33
2023/04/06 12:17:36;;;;;;;3.50;2.80;;;;;;;-128.00;-1.00;-1.00;97916;285;1003504;-30
2023/04/06 12:20:02;;;;;;;7.90;3.80;;;;;;;-128.00;-1.00;-1.00;97950;296;1004082;-29
2023/04/06 12:22:28;;;;;;;8.90;4.40;;;;;;;-128.00;-1.00;-1.00;98020;296;1003203;-30
2023/04/06 12:24:54;;;;;;;6.20;4.80;;;;;;;-128.00;-1.00;-1.00;97791;297;1004596;-32
2023/04/06 12:27:19;;;;;;;4.70;3.60;;;;;;;-128.00;-1.00;-1.00;97913;285;1004349;-31
2023/04/06 12:29:46;;;;;;;9.00;3.90;;;;;;;-128.00;-1.00;-1.00;97935;296;1002988;-30
2023/04/06 12:32:12;;;;;;;5.90;3.70;;;;;;;-128.00;-1.00;-1.00;97829;296;1003626;-30
2023/04/06 12:34:38;;;;;;;7.70;4.30;;;;;;;-128.00;-1.00;-1.00;97789;296;1003321;-37
2023/04/06 12:37:03;;;;;;;7.00;4.50;;;;;;;-128.00;-1.00;-1.00;97900;296;1003417;-34